sensor_id;sensor_type;location;lat;lon;timestamp;temperature;humidity
37456;DHT22;23316;50.718;7.328;2022-08-11T00:01:44;24.40;33.10
37456;DHT22;23316;50.718;7.328;2022-08-11T00:04:13;24.40;33.30
37456;DHT22;23316;50.718;7.328;2022-08-11T00:06:44;24.30;33.40
37456;DHT22;23316;50.718;7.328;2022-08-11T00:09:16;24.30;33.60
37456;DHT22;23316;50.718;7.328;2022-08-11T00:11:48;24.30;33.90
37456;DHT22;23316;50.718;7.328;2022-08-11T00:14:18;24.30;33.80
37456;DHT22;23316;50.718;7.328;2022-08-11T00:16:54;24.30;33.60
37456;DHT22;23316;50.718;7.328;2022-08-11T00:19:25;24.20;33.60
37456;DHT22;23316;50.718;7.328;2022-08-11T00:21:55;24.10;33.50
37456;DHT22;23316;50.718;7.328;2022-08-11T00:24:23;24.10;33.80
37456;DHT22;23316;50.718;7.328;2022-08-11T00:26:52;24.00;34.00
37456;DHT22;23316;50.718;7.328;2022-08-11T00:29:20;24.00;34.30
37456;DHT22;23316;50.718;7.328;2022-08-11T00:31:49;24.00;34.40
37456;DHT22;23316;50.718;7.328;2022-08-11T00:34:20;23.90;34.40
37456;DHT22;23316;50.718;7.328;2022-08-11T00:36:50;23.90;34.40
37456;DHT22;23316;50.718;7.328;2022-08-11T00:39:22;23.90;34.50
37456;DHT22;23316;50.718;7.328;2022-08-11T00:42:03;23.80;34.70
37456;DHT22;23316;50.718;7.328;2022-08-11T00:44:41;23.80;34.90
37456;DHT22;23316;50.718;7.328;2022-08-11T00:47:23;23.80;34.70
37456;DHT22;23316;50.718;7.328;2022-08-11T00:50:00;23.70;34.70
37456;DHT22;23316;50.718;7.328;2022-08-11T00:52:47;23.60;34.80
37456;DHT22;23316;50.718;7.328;2022-08-11T01:01:54;23.50;35.00
37456;DHT22;23316;50.718;7.328;2022-08-11T01:04:44;23.50;34.90
37456;DHT22;23316;50.718;7.328;2022-08-11T01:10:40;23.40;34.90
37456;DHT22;23316;50.718;7.328;2022-08-11T01:13:17;23.30;34.80
37456;DHT22;23316;50.718;7.328;2022-08-11T01:16:19;23.30;35.00
37456;DHT22;23316;50.718;7.328;2022-08-11T01:19:15;23.30;34.90
37456;DHT22;23316;50.718;7.328;2022-08-11T01:22:17;23.30;35.30
37456;DHT22;23316;50.718;7.328;2022-08-11T01:25:04;23.30;35.40
37456;DHT22;23316;50.718;7.328;2022-08-11T01:28:03;23.20;35.20
37456;DHT22;23316;50.718;7.328;2022-08-11T01:37:37;23.10;35.20
37456;DHT22;23316;50.718;7.328;2022-08-11T01:46:42;23.00;35.60
37456;DHT22;23316;50.718;7.328;2022-08-11T01:49:18;22.90;35.40
37456;DHT22;23316;50.718;7.328;2022-08-11T01:52:01;22.90;35.50
37456;DHT22;23316;50.718;7.328;2022-08-11T01:54:38;22.80;35.60
37456;DHT22;23316;50.718;7.328;2022-08-11T01:57:15;22.80;35.90
37456;DHT22;23316;50.718;7.328;2022-08-11T01:59:50;22.80;35.80
37456;DHT22;23316;50.718;7.328;2022-08-11T02:02:28;22.80;35.70
37456;DHT22;23316;50.718;7.328;2022-08-11T02:05:25;22.70;35.70
37456;DHT22;23316;50.718;7.328;2022-08-11T02:08:01;22.70;35.60
37456;DHT22;23316;50.718;7.328;2022-08-11T02:10:37;22.70;35.70
37456;DHT22;23316;50.718;7.328;2022-08-11T02:13:35;22.70;35.80
37456;DHT22;23316;50.718;7.328;2022-08-11T02:16:11;22.70;35.90
37456;DHT22;23316;50.718;7.328;2022-08-11T02:18:45;22.70;36.00
37456;DHT22;23316;50.718;7.328;2022-08-11T02:21:41;22.60;36.00
37456;DHT22;23316;50.718;7.328;2022-08-11T02:24:30;22.60;36.10
37456;DHT22;23316;50.718;7.328;2022-08-11T02:27:05;22.60;36.10
37456;DHT22;23316;50.718;7.328;2022-08-11T02:29:42;22.60;36.20
37456;DHT22;23316;50.718;7.328;2022-08-11T02:32:18;22.60;36.40
37456;DHT22;23316;50.718;7.328;2022-08-11T02:35:13;22.60;36.50
37456;DHT22;23316;50.718;7.328;2022-08-11T02:37:49;22.50;36.50
37456;DHT22;23316;50.718;7.328;2022-08-11T02:40:23;22.50;36.40
37456;DHT22;23316;50.718;7.328;2022-08-11T02:43:04;22.50;37.10
37456;DHT22;23316;50.718;7.328;2022-08-11T02:45:45;22.50;36.90
37456;DHT22;23316;50.718;7.328;2022-08-11T02:48:28;22.50;36.70
37456;DHT22;23316;50.718;7.328;2022-08-11T02:54:15;22.50;36.60
37456;DHT22;23316;50.718;7.328;2022-08-11T02:56:49;22.40;36.50
37456;DHT22;23316;50.718;7.328;2022-08-11T02:59:30;22.40;36.60
37456;DHT22;23316;50.718;7.328;2022-08-11T03:02:37;22.40;36.40
37456;DHT22;23316;50.718;7.328;2022-08-11T03:05:14;22.40;36.80
37456;DHT22;23316;50.718;7.328;2022-08-11T03:07:57;22.40;36.80
37456;DHT22;23316;50.718;7.328;2022-08-11T03:10:35;22.30;36.90
37456;DHT22;23316;50.718;7.328;2022-08-11T03:13:14;22.30;36.80
37456;DHT22;23316;50.718;7.328;2022-08-11T03:16:13;22.30;36.80
37456;DHT22;23316;50.718;7.328;2022-08-11T03:19:09;22.20;37.00
37456;DHT22;23316;50.718;7.328;2022-08-11T03:21:44;22.20;37.20
37456;DHT22;23316;50.718;7.328;2022-08-11T03:24:17;22.20;37.40
37456;DHT22;23316;50.718;7.328;2022-08-11T03:26:57;22.10;37.30
37456;DHT22;23316;50.718;7.328;2022-08-11T03:29:31;22.10;37.50
37456;DHT22;23316;50.718;7.328;2022-08-11T03:32:08;22.10;37.60
37456;DHT22;23316;50.718;7.328;2022-08-11T03:34:38;22.10;37.80
37456;DHT22;23316;50.718;7.328;2022-08-11T03:37:24;22.10;37.70
37456;DHT22;23316;50.718;7.328;2022-08-11T03:40:19;22.00;37.60
37456;DHT22;23316;50.718;7.328;2022-08-11T03:43:16;22.00;37.40
37456;DHT22;23316;50.718;7.328;2022-08-11T03:45:55;22.00;37.50
37456;DHT22;23316;50.718;7.328;2022-08-11T03:48:31;21.90;37.60
37456;DHT22;23316;50.718;7.328;2022-08-11T03:51:12;21.90;37.70
37456;DHT22;23316;50.718;7.328;2022-08-11T03:53:54;21.90;38.00
37456;DHT22;23316;50.718;7.328;2022-08-11T03:56:48;21.80;38.10
37456;DHT22;23316;50.718;7.328;2022-08-11T04:05:49;21.70;38.10
37456;DHT22;23316;50.718;7.328;2022-08-11T04:09:04;21.70;38.10
37456;DHT22;23316;50.718;7.328;2022-08-11T04:15:03;21.60;38.10
37456;DHT22;23316;50.718;7.328;2022-08-11T04:18:19;21.60;38.30
37456;DHT22;23316;50.718;7.328;2022-08-11T04:21:10;21.60;38.50
37456;DHT22;23316;50.718;7.328;2022-08-11T04:24:04;21.60;38.50
37456;DHT22;23316;50.718;7.328;2022-08-11T04:29:52;21.50;38.50
37456;DHT22;23316;50.718;7.328;2022-08-11T04:32:42;21.40;38.40
37456;DHT22;23316;50.718;7.328;2022-08-11T04:35:25;21.40;38.30
37456;DHT22;23316;50.718;7.328;2022-08-11T04:38:43;21.40;38.50
37456;DHT22;23316;50.718;7.328;2022-08-11T04:45:02;21.30;39.00
37456;DHT22;23316;50.718;7.328;2022-08-11T04:48:05;21.30;38.90
37456;DHT22;23316;50.718;7.328;2022-08-11T04:51:03;21.30;38.90
37456;DHT22;23316;50.718;7.328;2022-08-11T04:53:57;21.30;39.20
37456;DHT22;23316;50.718;7.328;2022-08-11T04:56:45;21.20;39.30
37456;DHT22;23316;50.718;7.328;2022-08-11T05:00:00;21.30;39.40
37456;DHT22;23316;50.718;7.328;2022-08-11T05:09:07;21.30;40.00
37456;DHT22;23316;50.718;7.328;2022-08-11T05:11:58;21.30;40.10
37456;DHT22;23316;50.718;7.328;2022-08-11T05:14:32;21.30;40.30
37456;DHT22;23316;50.718;7.328;2022-08-11T05:17:26;21.30;40.40
37456;DHT22;23316;50.718;7.328;2022-08-11T05:20:12;21.30;40.50
37456;DHT22;23316;50.718;7.328;2022-08-11T05:23:04;21.30;40.50
37456;DHT22;23316;50.718;7.328;2022-08-11T05:25:54;21.30;40.70
37456;DHT22;23316;50.718;7.328;2022-08-11T05:28:42;21.30;40.90
37456;DHT22;23316;50.718;7.328;2022-08-11T05:31:33;21.30;40.80
37456;DHT22;23316;50.718;7.328;2022-08-11T05:34:22;21.30;41.00
37456;DHT22;23316;50.718;7.328;2022-08-11T05:37:11;21.30;41.20
37456;DHT22;23316;50.718;7.328;2022-08-11T05:39:44;21.30;41.20
37456;DHT22;23316;50.718;7.328;2022-08-11T05:42:31;21.30;41.40
37456;DHT22;23316;50.718;7.328;2022-08-11T05:45:18;21.30;41.40
37456;DHT22;23316;50.718;7.328;2022-08-11T05:48:03;21.30;42.10
37456;DHT22;23316;50.718;7.328;2022-08-11T05:50:53;21.40;41.70
37456;DHT22;23316;50.718;7.328;2022-08-11T05:53:51;21.40;42.00
37456;DHT22;23316;50.718;7.328;2022-08-11T05:56:42;21.50;42.10
37456;DHT22;23316;50.718;7.328;2022-08-11T05:59:16;21.50;42.00
37456;DHT22;23316;50.718;7.328;2022-08-11T06:01:45;21.50;42.20
37456;DHT22;23316;50.718;7.328;2022-08-11T06:04:18;21.60;42.10
37456;DHT22;23316;50.718;7.328;2022-08-11T06:06:52;21.60;42.90
37456;DHT22;23316;50.718;7.328;2022-08-11T06:09:23;21.60;42.50
37456;DHT22;23316;50.718;7.328;2022-08-11T06:11:51;21.70;42.10
37456;DHT22;23316;50.718;7.328;2022-08-11T06:14:21;21.70;42.40
37456;DHT22;23316;50.718;7.328;2022-08-11T06:16:54;21.80;42.50
37456;DHT22;23316;50.718;7.328;2022-08-11T06:19:31;21.90;42.80
37456;DHT22;23316;50.718;7.328;2022-08-11T06:22:02;21.90;42.80
37456;DHT22;23316;50.718;7.328;2022-08-11T06:24:30;22.00;42.50
37456;DHT22;23316;50.718;7.328;2022-08-11T06:26:59;22.10;42.30
37456;DHT22;23316;50.718;7.328;2022-08-11T06:29:30;22.10;42.20
37456;DHT22;23316;50.718;7.328;2022-08-11T06:32:00;22.20;42.30
37456;DHT22;23316;50.718;7.328;2022-08-11T06:34:38;22.20;41.70
37456;DHT22;23316;50.718;7.328;2022-08-11T06:37:18;22.30;41.80
37456;DHT22;23316;50.718;7.328;2022-08-11T06:39:51;22.30;41.90
37456;DHT22;23316;50.718;7.328;2022-08-11T06:42:45;22.40;41.90
37456;DHT22;23316;50.718;7.328;2022-08-11T06:45:28;22.50;42.00
37456;DHT22;23316;50.718;7.328;2022-08-11T06:47:57;22.60;41.80
37456;DHT22;23316;50.718;7.328;2022-08-11T06:50:28;22.60;41.90
37456;DHT22;23316;50.718;7.328;2022-08-11T06:53:16;22.70;41.80
37456;DHT22;23316;50.718;7.328;2022-08-11T06:55:46;22.80;41.80
37456;DHT22;23316;50.718;7.328;2022-08-11T06:58:34;22.80;41.80
37456;DHT22;23316;50.718;7.328;2022-08-11T07:01:31;22.90;42.00
37456;DHT22;23316;50.718;7.328;2022-08-11T07:04:05;22.90;41.90
37456;DHT22;23316;50.718;7.328;2022-08-11T07:06:46;23.00;41.70
37456;DHT22;23316;50.718;7.328;2022-08-11T07:10:02;23.10;41.70
37456;DHT22;23316;50.718;7.328;2022-08-11T07:12:50;23.20;41.40
37456;DHT22;23316;50.718;7.328;2022-08-11T07:15:36;23.30;41.40
37456;DHT22;23316;50.718;7.328;2022-08-11T07:18:21;23.40;41.30
37456;DHT22;23316;50.718;7.328;2022-08-11T07:21:11;23.40;41.10
37456;DHT22;23316;50.718;7.328;2022-08-11T07:23:59;23.50;41.40
37456;DHT22;23316;50.718;7.328;2022-08-11T07:26:50;23.60;40.90
37456;DHT22;23316;50.718;7.328;2022-08-11T07:29:37;23.70;40.50
37456;DHT22;23316;50.718;7.328;2022-08-11T07:32:13;23.80;40.50
37456;DHT22;23316;50.718;7.328;2022-08-11T07:34:46;23.80;39.90
37456;DHT22;23316;50.718;7.328;2022-08-11T07:37:16;23.90;40.10
37456;DHT22;23316;50.718;7.328;2022-08-11T07:39:46;24.00;39.90
37456;DHT22;23316;50.718;7.328;2022-08-11T07:42:19;24.10;39.50
37456;DHT22;23316;50.718;7.328;2022-08-11T07:44:48;24.20;39.20
37456;DHT22;23316;50.718;7.328;2022-08-11T07:47:35;24.30;39.10
37456;DHT22;23316;50.718;7.328;2022-08-11T07:50:22;24.40;39.00
37456;DHT22;23316;50.718;7.328;2022-08-11T07:53:07;24.50;39.00
37456;DHT22;23316;50.718;7.328;2022-08-11T07:55:35;24.60;38.80
37456;DHT22;23316;50.718;7.328;2022-08-11T07:58:03;24.70;38.80
37456;DHT22;23316;50.718;7.328;2022-08-11T08:00:50;24.80;39.20
37456;DHT22;23316;50.718;7.328;2022-08-11T08:03:36;24.80;38.50
37456;DHT22;23316;50.718;7.328;2022-08-11T08:06:25;25.00;38.20
37456;DHT22;23316;50.718;7.328;2022-08-11T08:09:11;25.00;38.10
37456;DHT22;23316;50.718;7.328;2022-08-11T08:11:59;25.20;38.00
37456;DHT22;23316;50.718;7.328;2022-08-11T08:14:44;25.20;38.00
37456;DHT22;23316;50.718;7.328;2022-08-11T08:17:30;25.40;38.10
37456;DHT22;23316;50.718;7.328;2022-08-11T08:20:25;25.40;37.60
37456;DHT22;23316;50.718;7.328;2022-08-11T08:22:57;25.50;37.20
37456;DHT22;23316;50.718;7.328;2022-08-11T08:25:27;25.60;37.00
37456;DHT22;23316;50.718;7.328;2022-08-11T08:27:55;25.70;36.90
37456;DHT22;23316;50.718;7.328;2022-08-11T08:30:24;25.70;36.50
37456;DHT22;23316;50.718;7.328;2022-08-11T08:33:11;25.80;36.30
37456;DHT22;23316;50.718;7.328;2022-08-11T08:35:40;25.90;36.10
37456;DHT22;23316;50.718;7.328;2022-08-11T08:38:10;26.00;36.10
37456;DHT22;23316;50.718;7.328;2022-08-11T08:40:41;26.10;36.30
37456;DHT22;23316;50.718;7.328;2022-08-11T08:43:11;26.20;35.80
37456;DHT22;23316;50.718;7.328;2022-08-11T08:45:40;26.30;35.50
37456;DHT22;23316;50.718;7.328;2022-08-11T08:48:12;26.40;35.20
37456;DHT22;23316;50.718;7.328;2022-08-11T08:50:44;26.40;34.60
37456;DHT22;23316;50.718;7.328;2022-08-11T08:53:34;26.50;34.50
37456;DHT22;23316;50.718;7.328;2022-08-11T08:56:04;26.60;34.60
37456;DHT22;23316;50.718;7.328;2022-08-11T08:58:35;26.70;34.90
37456;DHT22;23316;50.718;7.328;2022-08-11T09:01:02;26.80;34.30
37456;DHT22;23316;50.718;7.328;2022-08-11T09:03:30;26.80;34.10
37456;DHT22;23316;50.718;7.328;2022-08-11T09:06:01;26.90;33.90
37456;DHT22;23316;50.718;7.328;2022-08-11T09:08:32;27.00;33.80
37456;DHT22;23316;50.718;7.328;2022-08-11T09:11:01;27.10;33.80
37456;DHT22;23316;50.718;7.328;2022-08-11T09:13:46;27.10;33.50
37456;DHT22;23316;50.718;7.328;2022-08-11T09:16:15;27.20;33.90
37456;DHT22;23316;50.718;7.328;2022-08-11T09:18:42;27.30;33.40
37456;DHT22;23316;50.718;7.328;2022-08-11T09:21:11;27.40;33.80
37456;DHT22;23316;50.718;7.328;2022-08-11T09:23:41;27.40;33.20
37456;DHT22;23316;50.718;7.328;2022-08-11T09:26:28;27.50;33.00
37456;DHT22;23316;50.718;7.328;2022-08-11T09:29:12;27.60;32.60
37456;DHT22;23316;50.718;7.328;2022-08-11T09:31:40;27.60;32.80
37456;DHT22;23316;50.718;7.328;2022-08-11T09:34:09;27.70;32.70
37456;DHT22;23316;50.718;7.328;2022-08-11T09:36:38;27.80;32.50
37456;DHT22;23316;50.718;7.328;2022-08-11T09:39:25;27.90;32.30
37456;DHT22;23316;50.718;7.328;2022-08-11T09:42:11;27.90;32.60
37456;DHT22;23316;50.718;7.328;2022-08-11T09:44:40;28.00;32.40
37456;DHT22;23316;50.718;7.328;2022-08-11T09:47:17;28.00;32.10
37456;DHT22;23316;50.718;7.328;2022-08-11T09:49:46;28.10;31.90
37456;DHT22;23316;50.718;7.328;2022-08-11T09:52:17;28.20;31.90
37456;DHT22;23316;50.718;7.328;2022-08-11T09:54:47;28.20;31.80
37456;DHT22;23316;50.718;7.328;2022-08-11T09:57:18;28.30;31.40
37456;DHT22;23316;50.718;7.328;2022-08-11T10:00:06;28.40;30.90
37456;DHT22;23316;50.718;7.328;2022-08-11T10:02:38;28.40;31.00
37456;DHT22;23316;50.718;7.328;2022-08-11T10:05:07;28.40;30.80
37456;DHT22;23316;50.718;7.328;2022-08-11T10:07:52;28.50;30.80
37456;DHT22;23316;50.718;7.328;2022-08-11T10:10:22;28.50;30.70
37456;DHT22;23316;50.718;7.328;2022-08-11T10:12:54;28.50;30.60
37456;DHT22;23316;50.718;7.328;2022-08-11T10:15:23;28.60;30.50
37456;DHT22;23316;50.718;7.328;2022-08-11T10:18:03;28.60;30.30
37456;DHT22;23316;50.718;7.328;2022-08-11T10:20:50;28.60;30.00
37456;DHT22;23316;50.718;7.328;2022-08-11T10:23:19;28.70;29.80
37456;DHT22;23316;50.718;7.328;2022-08-11T10:26:06;28.70;29.70
37456;DHT22;23316;50.718;7.328;2022-08-11T10:28:52;28.70;29.60
37456;DHT22;23316;50.718;7.328;2022-08-11T10:31:21;28.70;29.70
37456;DHT22;23316;50.718;7.328;2022-08-11T10:34:07;28.70;29.60
37456;DHT22;23316;50.718;7.328;2022-08-11T10:36:38;28.70;29.50
37456;DHT22;23316;50.718;7.328;2022-08-11T10:39:13;28.70;29.50
37456;DHT22;23316;50.718;7.328;2022-08-11T10:41:44;28.80;29.30
37456;DHT22;23316;50.718;7.328;2022-08-11T10:44:34;28.80;29.40
37456;DHT22;23316;50.718;7.328;2022-08-11T10:47:03;28.80;29.40
37456;DHT22;23316;50.718;7.328;2022-08-11T10:49:48;28.90;29.50
37456;DHT22;23316;50.718;7.328;2022-08-11T10:52:38;28.90;29.60
37456;DHT22;23316;50.718;7.328;2022-08-11T10:55:24;29.00;29.70
37456;DHT22;23316;50.718;7.328;2022-08-11T10:58:11;29.00;29.60
37456;DHT22;23316;50.718;7.328;2022-08-11T11:00:58;29.10;29.40
37456;DHT22;23316;50.718;7.328;2022-08-11T11:03:28;29.10;29.20
37456;DHT22;23316;50.718;7.328;2022-08-11T11:06:02;29.20;29.10
37456;DHT22;23316;50.718;7.328;2022-08-11T11:08:32;29.20;29.20
37456;DHT22;23316;50.718;7.328;2022-08-11T11:11:18;29.30;29.40
37456;DHT22;23316;50.718;7.328;2022-08-11T11:13:49;29.30;29.20
37456;DHT22;23316;50.718;7.328;2022-08-11T11:16:35;29.40;29.30
37456;DHT22;23316;50.718;7.328;2022-08-11T11:19:22;29.40;28.90
37456;DHT22;23316;50.718;7.328;2022-08-11T11:21:53;29.50;29.50
37456;DHT22;23316;50.718;7.328;2022-08-11T11:24:44;29.50;28.70
37456;DHT22;23316;50.718;7.328;2022-08-11T11:27:22;29.50;28.20
37456;DHT22;23316;50.718;7.328;2022-08-11T11:30:02;29.60;28.60
37456;DHT22;23316;50.718;7.328;2022-08-11T11:32:39;29.60;28.60
37456;DHT22;23316;50.718;7.328;2022-08-11T11:35:17;29.60;28.40
37456;DHT22;23316;50.718;7.328;2022-08-11T11:37:49;29.70;28.40
37456;DHT22;23316;50.718;7.328;2022-08-11T11:40:18;29.70;28.60
37456;DHT22;23316;50.718;7.328;2022-08-11T11:42:48;29.70;28.40
37456;DHT22;23316;50.718;7.328;2022-08-11T11:45:19;29.70;28.20
37456;DHT22;23316;50.718;7.328;2022-08-11T11:47:46;29.80;27.90
37456;DHT22;23316;50.718;7.328;2022-08-11T11:50:22;29.80;28.20
37456;DHT22;23316;50.718;7.328;2022-08-11T11:52:51;29.90;28.30
37456;DHT22;23316;50.718;7.328;2022-08-11T11:55:21;29.90;28.20
37456;DHT22;23316;50.718;7.328;2022-08-11T11:57:51;30.00;28.20
37456;DHT22;23316;50.718;7.328;2022-08-11T12:00:38;30.00;28.00
37456;DHT22;23316;50.718;7.328;2022-08-11T12:03:24;30.00;27.80
37456;DHT22;23316;50.718;7.328;2022-08-11T12:05:52;30.00;27.70
37456;DHT22;23316;50.718;7.328;2022-08-11T12:08:21;30.00;27.60
37456;DHT22;23316;50.718;7.328;2022-08-11T12:10:50;30.10;27.50
37456;DHT22;23316;50.718;7.328;2022-08-11T12:13:40;30.10;27.70
37456;DHT22;23316;50.718;7.328;2022-08-11T12:16:09;30.10;27.50
37456;DHT22;23316;50.718;7.328;2022-08-11T12:18:38;30.10;27.60
37456;DHT22;23316;50.718;7.328;2022-08-11T12:21:07;30.10;27.60
37456;DHT22;23316;50.718;7.328;2022-08-11T12:23:36;30.20;27.70
37456;DHT22;23316;50.718;7.328;2022-08-11T12:26:22;30.20;27.60
37456;DHT22;23316;50.718;7.328;2022-08-11T12:29:20;30.20;27.50
37456;DHT22;23316;50.718;7.328;2022-08-11T12:31:55;30.20;27.40
37456;DHT22;23316;50.718;7.328;2022-08-11T12:34:25;30.30;27.30
37456;DHT22;23316;50.718;7.328;2022-08-11T12:36:56;30.20;27.30
37456;DHT22;23316;50.718;7.328;2022-08-11T12:39:26;30.30;27.20
37456;DHT22;23316;50.718;7.328;2022-08-11T12:42:10;30.30;27.20
37456;DHT22;23316;50.718;7.328;2022-08-11T12:44:56;30.30;27.10
37456;DHT22;23316;50.718;7.328;2022-08-11T12:47:47;30.30;27.00
37456;DHT22;23316;50.718;7.328;2022-08-11T12:50:33;30.30;27.10
37456;DHT22;23316;50.718;7.328;2022-08-11T12:53:21;30.40;27.10
37456;DHT22;23316;50.718;7.328;2022-08-11T12:55:50;30.30;27.10
37456;DHT22;23316;50.718;7.328;2022-08-11T12:58:39;30.40;27.00
37456;DHT22;23316;50.718;7.328;2022-08-11T13:01:07;30.40;27.10
37456;DHT22;23316;50.718;7.328;2022-08-11T13:03:54;30.40;27.10
37456;DHT22;23316;50.718;7.328;2022-08-11T13:06:40;30.40;27.10
37456;DHT22;23316;50.718;7.328;2022-08-11T13:09:10;30.50;26.90
37456;DHT22;23316;50.718;7.328;2022-08-11T13:11:38;30.50;27.00
37456;DHT22;23316;50.718;7.328;2022-08-11T13:14:24;30.50;27.10
37456;DHT22;23316;50.718;7.328;2022-08-11T13:16:52;30.60;26.90
37456;DHT22;23316;50.718;7.328;2022-08-11T13:19:40;30.60;26.70
37456;DHT22;23316;50.718;7.328;2022-08-11T13:22:08;30.70;26.60
37456;DHT22;23316;50.718;7.328;2022-08-11T13:24:37;30.70;26.60
37456;DHT22;23316;50.718;7.328;2022-08-11T13:27:05;30.70;26.50
37456;DHT22;23316;50.718;7.328;2022-08-11T13:29:33;30.70;26.50
37456;DHT22;23316;50.718;7.328;2022-08-11T13:32:02;30.70;26.50
37456;DHT22;23316;50.718;7.328;2022-08-11T13:34:29;30.70;26.40
37456;DHT22;23316;50.718;7.328;2022-08-11T13:37:01;30.70;26.40
37456;DHT22;23316;50.718;7.328;2022-08-11T13:39:31;30.70;26.30
37456;DHT22;23316;50.718;7.328;2022-08-11T13:42:00;30.70;26.30
37456;DHT22;23316;50.718;7.328;2022-08-11T13:44:29;30.80;26.30
37456;DHT22;23316;50.718;7.328;2022-08-11T13:46:59;30.80;26.70
37456;DHT22;23316;50.718;7.328;2022-08-11T13:49:28;30.80;26.40
37456;DHT22;23316;50.718;7.328;2022-08-11T13:51:56;30.80;26.20
37456;DHT22;23316;50.718;7.328;2022-08-11T13:54:29;30.80;26.20
37456;DHT22;23316;50.718;7.328;2022-08-11T13:57:00;30.80;25.90
37456;DHT22;23316;50.718;7.328;2022-08-11T13:59:29;30.90;25.90
37456;DHT22;23316;50.718;7.328;2022-08-11T14:01:58;31.00;25.90
37456;DHT22;23316;50.718;7.328;2022-08-11T14:04:31;30.90;25.60
37456;DHT22;23316;50.718;7.328;2022-08-11T14:07:06;31.00;25.60
37456;DHT22;23316;50.718;7.328;2022-08-11T14:09:39;31.00;25.60
37456;DHT22;23316;50.718;7.328;2022-08-11T14:12:12;31.00;25.50
37456;DHT22;23316;50.718;7.328;2022-08-11T14:15:00;31.00;25.50
37456;DHT22;23316;50.718;7.328;2022-08-11T14:17:31;31.00;25.20
37456;DHT22;23316;50.718;7.328;2022-08-11T14:20:02;31.00;24.90
37456;DHT22;23316;50.718;7.328;2022-08-11T14:22:31;31.00;24.00
37456;DHT22;23316;50.718;7.328;2022-08-11T14:24:59;31.00;24.70
37456;DHT22;23316;50.718;7.328;2022-08-11T14:27:27;31.10;24.80
37456;DHT22;23316;50.718;7.328;2022-08-11T14:29:56;31.10;24.90
37456;DHT22;23316;50.718;7.328;2022-08-11T14:32:24;31.20;25.00
37456;DHT22;23316;50.718;7.328;2022-08-11T14:34:52;31.20;25.00
37456;DHT22;23316;50.718;7.328;2022-08-11T14:37:22;31.30;25.00
37456;DHT22;23316;50.718;7.328;2022-08-11T14:39:52;31.30;25.10
37456;DHT22;23316;50.718;7.328;2022-08-11T14:42:23;31.40;25.10
37456;DHT22;23316;50.718;7.328;2022-08-11T14:45:11;31.40;25.00
37456;DHT22;23316;50.718;7.328;2022-08-11T14:48:04;31.40;24.90
37456;DHT22;23316;50.718;7.328;2022-08-11T14:50:34;31.50;25.10
37456;DHT22;23316;50.718;7.328;2022-08-11T14:53:05;31.50;24.90
37456;DHT22;23316;50.718;7.328;2022-08-11T14:55:35;31.50;25.00
37456;DHT22;23316;50.718;7.328;2022-08-11T14:58:27;31.50;24.80
37456;DHT22;23316;50.718;7.328;2022-08-11T15:00:56;31.50;24.70
37456;DHT22;23316;50.718;7.328;2022-08-11T15:03:25;31.50;24.00
37456;DHT22;23316;50.718;7.328;2022-08-11T15:05:54;31.50;24.00
37456;DHT22;23316;50.718;7.328;2022-08-11T15:08:23;31.50;24.40
37456;DHT22;23316;50.718;7.328;2022-08-11T15:11:13;31.60;24.40
37456;DHT22;23316;50.718;7.328;2022-08-11T15:13:58;31.60;24.40
37456;DHT22;23316;50.718;7.328;2022-08-11T15:16:26;31.70;24.40
37456;DHT22;23316;50.718;7.328;2022-08-11T15:19:12;31.60;24.50
37456;DHT22;23316;50.718;7.328;2022-08-11T15:21:40;31.70;24.50
37456;DHT22;23316;50.718;7.328;2022-08-11T15:24:25;31.70;24.50
37456;DHT22;23316;50.718;7.328;2022-08-11T15:26:52;31.70;24.50
37456;DHT22;23316;50.718;7.328;2022-08-11T15:29:40;31.70;24.40
37456;DHT22;23316;50.718;7.328;2022-08-11T15:32:27;31.70;24.40
37456;DHT22;23316;50.718;7.328;2022-08-11T15:35:13;31.70;24.30
37456;DHT22;23316;50.718;7.328;2022-08-11T15:38:01;31.70;24.40
37456;DHT22;23316;50.718;7.328;2022-08-11T15:40:30;31.70;24.30
37456;DHT22;23316;50.718;7.328;2022-08-11T15:43:21;31.70;24.30
37456;DHT22;23316;50.718;7.328;2022-08-11T15:46:13;31.70;24.40
37456;DHT22;23316;50.718;7.328;2022-08-11T15:48:43;31.70;24.40
37456;DHT22;23316;50.718;7.328;2022-08-11T15:51:16;31.60;24.20
37456;DHT22;23316;50.718;7.328;2022-08-11T15:53:51;31.70;24.70
37456;DHT22;23316;50.718;7.328;2022-08-11T15:56:20;31.60;24.30
37456;DHT22;23316;50.718;7.328;2022-08-11T15:58:51;31.70;24.30
37456;DHT22;23316;50.718;7.328;2022-08-11T16:01:39;31.70;24.30
37456;DHT22;23316;50.718;7.328;2022-08-11T16:04:27;31.70;24.30
37456;DHT22;23316;50.718;7.328;2022-08-11T16:06:58;31.70;24.10
37456;DHT22;23316;50.718;7.328;2022-08-11T16:09:32;31.70;24.40
37456;DHT22;23316;50.718;7.328;2022-08-11T16:12:03;31.70;24.80
37456;DHT22;23316;50.718;7.328;2022-08-11T16:14:35;31.60;24.30
37456;DHT22;23316;50.718;7.328;2022-08-11T16:17:25;31.70;24.20
37456;DHT22;23316;50.718;7.328;2022-08-11T16:19:54;31.60;24.20
37456;DHT22;23316;50.718;7.328;2022-08-11T16:22:26;31.60;24.30
37456;DHT22;23316;50.718;7.328;2022-08-11T16:25:00;31.60;24.20
37456;DHT22;23316;50.718;7.328;2022-08-11T16:27:31;31.60;24.20
37456;DHT22;23316;50.718;7.328;2022-08-11T16:29:59;31.60;24.00
37456;DHT22;23316;50.718;7.328;2022-08-11T16:32:29;31.50;23.90
37456;DHT22;23316;50.718;7.328;2022-08-11T16:34:59;31.50;24.40
37456;DHT22;23316;50.718;7.328;2022-08-11T16:37:45;31.50;24.80
37456;DHT22;23316;50.718;7.328;2022-08-11T16:40:31;31.50;24.20
37456;DHT22;23316;50.718;7.328;2022-08-11T16:43:00;31.40;24.10
37456;DHT22;23316;50.718;7.328;2022-08-11T16:45:47;31.40;24.10
37456;DHT22;23316;50.718;7.328;2022-08-11T16:48:36;31.40;24.30
37456;DHT22;23316;50.718;7.328;2022-08-11T16:51:05;31.40;24.20
37456;DHT22;23316;50.718;7.328;2022-08-11T16:53:32;31.40;24.20
37456;DHT22;23316;50.718;7.328;2022-08-11T16:56:01;31.30;24.30
37456;DHT22;23316;50.718;7.328;2022-08-11T16:58:30;31.30;24.30
37456;DHT22;23316;50.718;7.328;2022-08-11T17:01:19;31.30;24.30
37456;DHT22;23316;50.718;7.328;2022-08-11T17:03:59;31.30;24.30
37456;DHT22;23316;50.718;7.328;2022-08-11T17:06:46;31.20;24.40
37456;DHT22;23316;50.718;7.328;2022-08-11T17:09:34;31.20;24.40
37456;DHT22;23316;50.718;7.328;2022-08-11T17:12:23;31.20;24.40
37456;DHT22;23316;50.718;7.328;2022-08-11T17:15:11;31.20;24.50
37456;DHT22;23316;50.718;7.328;2022-08-11T17:17:56;31.20;24.40
37456;DHT22;23316;50.718;7.328;2022-08-11T17:20:26;31.20;24.50
37456;DHT22;23316;50.718;7.328;2022-08-11T17:22:55;31.10;24.40
37456;DHT22;23316;50.718;7.328;2022-08-11T17:25:52;31.10;24.50
37456;DHT22;23316;50.718;7.328;2022-08-11T17:28:20;31.10;24.50
37456;DHT22;23316;50.718;7.328;2022-08-11T17:30:49;31.10;24.60